createdAt,value
2023-01-05T00:00:02.814Z,1010.46
2023-01-05T00:05:02.720Z,1010.54
2023-01-05T00:10:03.548Z,1010.57
2023-01-05T00:15:03.189Z,1010.57
2023-01-05T00:20:03.023Z,1010.52
2023-01-05T00:25:13.353Z,1010.71
2023-01-05T00:30:03.072Z,1010.58
2023-01-05T00:35:02.957Z,1010.64
2023-01-05T00:40:02.795Z,1010.57
2023-01-05T00:45:03.449Z,1010.58
2023-01-05T00:50:03.237Z,1010.52
2023-01-05T00:55:03.020Z,1010.53
2023-01-05T01:00:02.869Z,1010.52
2023-01-05T01:05:03.455Z,1010.49
2023-01-05T01:10:03.143Z,1010.41
2023-01-05T01:15:03.205Z,1010.41
2023-01-05T01:20:02.993Z,1010.58
2023-01-05T01:25:03.694Z,1011.08
2023-01-05T01:30:04.264Z,1010.91
2023-01-05T01:40:02.994Z,1010.96
2023-01-05T01:45:03.275Z,1011.41
2023-01-05T01:50:03.382Z,1011.2
2023-01-05T01:55:03.676Z,1011.14
2023-01-05T02:00:03.337Z,1011.17
2023-01-05T02:05:03.153Z,1011.2
2023-01-05T02:10:02.983Z,1011.22
2023-01-05T02:15:03.470Z,1011.13
2023-01-05T02:20:03.400Z,1011.07
2023-01-05T02:25:03.287Z,1011.24
2023-01-05T02:30:03.335Z,1011.07
2023-01-05T02:35:02.949Z,1011.08
2023-01-05T02:40:03.232Z,1011.02
2023-01-05T02:45:02.948Z,1010.94
2023-01-05T02:50:02.699Z,1010.93
2023-01-05T02:55:04.426Z,1010.89
2023-01-05T03:00:03.409Z,1010.91
2023-01-05T03:05:03.404Z,1010.96
2023-01-05T03:10:03.144Z,1011.05
2023-01-05T03:15:02.869Z,1010.89
2023-01-05T03:20:02.780Z,1010.83
2023-01-05T03:25:02.806Z,1010.78
2023-01-05T03:30:03.362Z,1010.79
2023-01-05T03:35:03.393Z,1010.95
2023-01-05T03:40:02.820Z,1010.89
2023-01-05T03:45:02.739Z,1010.98
2023-01-05T03:50:03.595Z,1010.81
2023-01-05T03:55:03.202Z,1010.92
2023-01-05T04:00:02.995Z,1010.9
2023-01-05T04:05:03.275Z,1011.04
2023-01-05T04:10:03.251Z,1010.97
2023-01-05T04:15:03.248Z,1010.89
2023-01-05T04:20:02.833Z,1010.92
2023-01-05T04:25:03.667Z,1010.94
2023-01-05T04:30:03.526Z,1010.9
2023-01-05T04:35:12.191Z,1010.89
2023-01-05T04:40:03.237Z,1011.01
2023-01-05T04:45:02.784Z,1011.09
2023-01-05T04:50:02.770Z,1011.08
2023-01-05T04:55:04.262Z,1011.12
2023-01-05T05:00:03.291Z,1011.16
2023-01-05T05:05:03.139Z,1011.26
2023-01-05T05:10:03.471Z,1011.28
2023-01-05T05:15:03.187Z,1011.31
2023-01-05T05:20:03.483Z,1011.33
2023-01-05T05:30:02.750Z,1011.42
2023-01-05T05:35:03.459Z,1011.5
2023-01-05T05:40:03.519Z,1011.58
2023-01-05T05:45:03.461Z,1011.69
2023-01-05T05:50:03.285Z,1011.64
2023-01-05T05:55:03.313Z,1011.72
2023-01-05T06:00:02.715Z,1011.8
2023-01-05T06:05:03.673Z,1011.81
2023-01-05T06:10:03.769Z,1011.82
2023-01-05T06:15:03.096Z,1011.68
2023-01-05T06:20:02.873Z,1011.72
2023-01-05T06:25:03.291Z,1011.72
2023-01-05T06:30:02.770Z,1011.67
2023-01-05T06:35:02.803Z,1012.01
2023-01-05T06:40:03.465Z,1011.98
2023-01-05T06:45:03.612Z,1012.01
2023-01-05T06:50:03.364Z,1012.03
2023-01-05T06:55:03.507Z,1012.1
2023-01-05T07:00:03.332Z,1012.02
2023-01-05T07:05:02.690Z,1012.19
2023-01-05T07:10:03.505Z,1012.05
2023-01-05T07:15:03.312Z,1012.17
2023-01-05T07:20:03.532Z,1012.26
2023-01-05T07:25:02.932Z,1012.22
2023-01-05T07:30:03.636Z,1012.21
2023-01-05T07:35:03.357Z,1012.53
2023-01-05T07:40:03.259Z,1012.58
2023-01-05T07:45:03.282Z,1012.57
2023-01-05T07:50:03.055Z,1012.76
2023-01-05T07:55:02.908Z,1012.74
2023-01-05T08:00:03.439Z,1012.87
2023-01-05T08:05:03.133Z,1012.89
2023-01-05T08:10:03.224Z,1012.91
2023-01-05T08:15:02.921Z,1013.03
2023-01-05T08:20:03.637Z,1013.03
2023-01-05T08:25:02.665Z,1013.14
2023-01-05T08:30:03.711Z,1013.11
2023-01-05T08:35:03.262Z,1013.27
2023-01-05T08:40:03.029Z,1013.33
2023-01-05T08:45:02.868Z,1013.53
2023-01-05T08:50:03.044Z,1013.28
2023-01-05T08:55:03.303Z,1013.68
2023-01-05T09:00:03.589Z,1013.72
2023-01-05T09:05:03.320Z,1013.64
2023-01-05T09:10:03.011Z,1013.8
2023-01-05T09:15:02.947Z,1013.85
2023-01-05T09:20:03.176Z,1013.87
2023-01-05T09:25:03.500Z,1013.99
2023-01-05T09:30:03.433Z,1014.22
2023-01-05T09:35:03.110Z,1014.33
2023-01-05T09:40:02.965Z,1014.2
2023-01-05T09:45:02.956Z,1014.25
2023-01-05T09:50:02.894Z,1014.3
2023-01-05T09:55:03.529Z,1014.32
2023-01-05T10:00:03.280Z,1014.4
2023-01-05T10:05:03.863Z,1014.54
2023-01-05T10:10:02.802Z,1014.72
2023-01-05T10:15:02.899Z,1014.78
2023-01-05T10:20:02.784Z,1014.81
2023-01-05T10:30:03.299Z,1014.85
2023-01-05T10:35:03.270Z,1014.89
2023-01-05T10:40:03.135Z,1014.94
2023-01-05T10:50:03.595Z,1014.95
2023-01-05T10:55:03.482Z,1014.98
2023-01-05T11:00:03.669Z,1014.93
2023-01-05T11:05:03.423Z,1014.97
2023-01-05T11:10:02.873Z,1015.1
2023-01-05T11:15:03.698Z,1015.07
2023-01-05T11:20:02.860Z,1015.2
2023-01-05T11:25:03.567Z,1015.39
2023-01-05T11:30:03.540Z,1015.43
2023-01-05T11:35:03.232Z,1015.56
2023-01-05T11:40:03.355Z,1015.58
2023-01-05T11:45:03.153Z,1015.62
2023-01-05T11:50:10.599Z,1015.7
2023-01-05T11:55:03.287Z,1015.87
2023-01-05T12:00:03.393Z,1015.96
2023-01-05T12:05:03.049Z,1015.85
2023-01-05T12:10:02.849Z,1015.88
2023-01-05T12:15:03.598Z,1015.96
2023-01-05T12:20:03.586Z,1016.05
2023-01-05T12:25:03.234Z,1016.21
2023-01-05T12:35:03.017Z,1016.33
2023-01-05T12:40:03.079Z,1016.49
2023-01-05T12:45:02.950Z,1016.44
2023-01-05T12:50:02.825Z,1016.4
2023-01-05T12:55:03.594Z,1016.37
2023-01-05T13:00:03.363Z,1016.46
2023-01-05T13:05:03.068Z,1016.54
2023-01-05T13:10:04.274Z,1016.75
2023-01-05T13:15:02.776Z,1016.85
2023-01-05T13:20:02.643Z,1016.84
2023-01-05T13:25:03.524Z,1016.88
2023-01-05T13:30:03.364Z,1016.97
2023-01-05T13:35:03.267Z,1017.08
2023-01-05T13:40:03.525Z,1017.21
2023-01-05T13:45:03.537Z,1017.26
2023-01-05T13:50:03.420Z,1017.29
2023-01-05T13:55:07.718Z,1017.42
2023-01-05T14:00:12.744Z,1017.49
2023-01-05T14:05:03.467Z,1017.61
2023-01-05T14:10:03.641Z,1017.64
2023-01-05T14:15:03.147Z,1017.86
2023-01-05T14:20:02.967Z,1018
2023-01-05T14:25:02.793Z,1018.2
2023-01-05T14:30:03.641Z,1018.33
2023-01-05T14:35:03.727Z,1018.41
2023-01-05T14:45:02.882Z,1018.65
2023-01-05T14:50:02.756Z,1018.65
2023-01-05T14:55:21.630Z,1018.85
2023-01-05T15:00:03.214Z,1018.88
2023-01-05T15:05:03.350Z,1019.01
2023-01-05T15:10:03.074Z,1019
2023-01-05T15:15:04.197Z,1019.13
2023-01-05T15:20:10.116Z,1019.24
2023-01-05T15:25:02.852Z,1019.27
2023-01-05T15:30:03.615Z,1019.43
2023-01-05T15:35:03.534Z,1019.36
2023-01-05T15:40:03.321Z,1019.53
2023-01-05T15:45:02.896Z,1019.66
2023-01-05T15:50:03.018Z,1019.54
2023-01-05T15:55:03.217Z,1019.52
2023-01-05T16:00:03.650Z,1019.69
2023-01-05T16:05:02.739Z,1019.74
2023-01-05T16:10:06.024Z,1019.73
2023-01-05T16:15:03.325Z,1019.8
2023-01-05T16:20:02.997Z,1019.88
2023-01-05T16:25:02.777Z,1019.91
2023-01-05T16:30:03.507Z,1020.06
2023-01-05T16:35:02.705Z,1020.05
2023-01-05T16:40:03.932Z,1020.02
2023-01-05T16:45:03.282Z,1020.22
2023-01-05T16:50:03.321Z,1020.28
2023-01-05T16:55:03.217Z,1020.34
2023-01-05T17:00:02.764Z,1020.28
2023-01-05T17:05:02.964Z,1020.37
2023-01-05T17:10:02.705Z,1020.3
2023-01-05T17:15:03.594Z,1020.4
2023-01-05T17:20:03.599Z,1020.44
2023-01-05T17:25:03.092Z,1020.59
2023-01-05T17:30:02.936Z,1020.55
2023-01-05T17:35:02.741Z,1020.68
2023-01-05T17:40:03.868Z,1020.68
2023-01-05T17:45:03.800Z,1020.86
2023-01-05T17:50:03.548Z,1020.89
2023-01-05T17:55:03.773Z,1020.98
2023-01-05T18:00:03.045Z,1020.97
2023-01-05T18:05:02.897Z,1021.08
2023-01-05T18:10:03.721Z,1021.13
2023-01-05T18:15:03.498Z,1021.15
2023-01-05T18:20:03.352Z,1021.32
2023-01-05T18:25:03.295Z,1021.34
2023-01-05T18:30:03.348Z,1021.33
2023-01-05T18:35:10.858Z,1021.37
2023-01-05T18:40:04.026Z,1021.29
2023-01-05T18:45:39.862Z,1021.37
2023-01-05T18:50:02.866Z,1021.53
2023-01-05T18:55:03.861Z,1021.46
2023-01-05T19:00:03.342Z,1021.51
2023-01-05T19:05:03.133Z,1021.58
2023-01-05T19:10:03.212Z,1021.54
2023-01-05T19:15:03.484Z,1021.61
2023-01-05T19:20:03.113Z,1021.65
2023-01-05T19:25:02.937Z,1021.53
2023-01-05T19:30:03.542Z,1021.67
2023-01-05T19:35:03.221Z,1021.66
2023-01-05T19:40:03.479Z,1021.68
2023-01-05T19:45:02.795Z,1021.71
2023-01-05T19:50:02.697Z,1021.6
2023-01-05T19:55:03.725Z,1021.63
2023-01-05T20:00:02.720Z,1021.66
2023-01-05T20:05:03.549Z,1021.8
2023-01-05T20:10:03.241Z,1021.79
2023-01-05T20:15:02.922Z,1021.94
2023-01-05T20:20:02.817Z,1021.94
2023-01-05T20:25:02.665Z,1021.87
2023-01-05T20:30:03.551Z,1022.04
2023-01-05T20:35:03.039Z,1022.07
2023-01-05T20:40:03.301Z,1022.17
2023-01-05T20:45:03.599Z,1022.22
2023-01-05T20:50:03.615Z,1022.23
2023-01-05T20:55:03.420Z,1022.38
2023-01-05T21:00:02.793Z,1022.43
2023-01-05T21:05:03.494Z,1022.47
2023-01-05T21:10:03.169Z,1022.41
2023-01-05T21:15:03.049Z,1022.62
2023-01-05T21:20:03.114Z,1022.64
2023-01-05T21:25:02.855Z,1022.63
2023-01-05T21:30:03.665Z,1022.63
2023-01-05T21:35:03.420Z,1022.64
2023-01-05T21:40:03.545Z,1022.63
2023-01-05T21:45:02.972Z,1022.67
2023-01-05T21:50:03.646Z,1022.59
2023-01-05T21:55:03.071Z,1022.6
2023-01-05T22:00:03.591Z,1022.57
2023-01-05T22:05:03.225Z,1022.48
2023-01-05T22:10:02.949Z,1022.56
2023-01-05T22:15:02.802Z,1022.69
2023-01-05T22:20:03.808Z,1022.66
2023-01-05T22:25:03.430Z,1022.69
2023-01-05T22:30:03.154Z,1022.69
2023-01-05T22:35:02.697Z,1022.74
2023-01-05T22:40:03.762Z,1022.72
2023-01-05T22:45:03.358Z,1022.78
2023-01-05T22:50:03.247Z,1022.61
2023-01-05T22:55:03.587Z,1022.56
2023-01-05T23:00:03.364Z,1022.68
2023-01-05T23:05:04.697Z,1022.6
2023-01-05T23:10:02.787Z,1022.66
2023-01-05T23:15:03.594Z,1022.7
2023-01-05T23:20:03.554Z,1022.85
2023-01-05T23:25:03.648Z,1022.81
2023-01-05T23:30:03.278Z,1022.73
2023-01-05T23:35:03.125Z,1022.65
2023-01-05T23:40:03.198Z,1022.74
2023-01-05T23:45:03.159Z,1022.66
2023-01-05T23:50:02.630Z,1022.59
2023-01-05T23:55:04.047Z,1022.54
